Time;durP1;ratioP1;P1;durP2;ratioP2;P2;SDS_P1;SDS_P2;PMS_P1;PMS_P2;Temp;Humidity;BMP_temperature;BMP_pressure;BME280_temperature;BME280_humidity;BME280_pressure;Samples;Min_cycle;Max_cycle;Signal;HPM_P1;HPM_P2
2022/01/18 00:00:08;;;;;;;39.53;6.95;;;7.30;99.90;;;;;;5045258;28;20076;-76
2022/01/18 00:02:34;;;;;;;37.60;6.95;;;7.20;99.90;;;;;;5040198;28;20037;-75
2022/01/18 00:05:00;;;;;;;46.67;6.57;;;7.20;99.90;;;;;;5046644;28;20079;-76
2022/01/18 00:07:25;;;;;;;45.35;6.50;;;7.10;99.90;;;;;;5049323;28;20041;-74
2022/01/18 00:09:51;;;;;;;43.58;7.22;;;7.10;99.90;;;;;;5047472;28;20461;-76
2022/01/18 00:12:53;;;;;;;44.75;7.00;;;7.10;99.90;;;;;;5048272;28;20155;-75
2022/01/18 00:20:43;;;;;;;38.13;6.68;;;6.90;99.90;;;;;;5047211;28;20468;-75
2022/01/18 00:23:10;;;;;;;32.78;5.38;;;6.90;99.90;;;;;;5022098;28;20179;-76
2022/01/18 00:25:37;;;;;;;39.72;6.00;;;6.80;99.90;;;;;;5057164;28;20071;-75
2022/01/18 00:28:05;;;;;;;30.23;5.00;;;6.80;99.90;;;;;;5048263;28;20057;-76
2022/01/18 00:36:02;;;;;;;29.40;5.40;;;6.60;99.90;;;;;;5046054;28;20467;-75
2022/01/18 00:41:08;;;;;;;29.52;5.57;;;6.50;99.90;;;;;;5037268;28;20041;-75
2022/01/18 00:43:34;;;;;;;25.92;4.78;;;6.40;99.90;;;;;;5046736;28;20076;-75
2022/01/18 00:45:59;;;;;;;29.00;4.60;;;6.40;99.90;;;;;;5045693;28;20037;-75
2022/01/18 00:48:25;;;;;;;25.58;5.07;;;6.40;99.90;;;;;;5046080;28;20044;-74
2022/01/18 00:50:52;;;;;;;23.70;4.57;;;6.40;99.90;;;;;;5047801;28;20609;-76
2022/01/18 00:53:19;;;;;;;34.10;4.88;;;6.40;99.90;;;;;;5046366;28;20381;-75
2022/01/18 00:55:53;;;;;;;30.80;4.70;;;6.40;99.90;;;;;;5046093;28;20052;-75
2022/01/18 00:58:19;;;;;;;18.60;4.85;;;6.30;99.90;;;;;;5049411;28;20112;-76
2022/01/18 01:00:45;;;;;;;25.42;4.47;;;6.30;99.90;;;;;;5042866;28;20129;-76
2022/01/18 01:03:10;;;;;;;32.03;5.35;;;6.30;99.90;;;;;;5044466;28;20120;-76
2022/01/18 01:05:36;;;;;;;24.50;4.82;;;6.30;99.90;;;;;;5044510;28;20063;-76
2022/01/18 01:08:02;;;;;;;24.60;4.88;;;6.30;99.90;;;;;;5041991;28;20045;-76
2022/01/18 01:10:28;;;;;;;32.47;5.22;;;6.30;99.90;;;;;;5035511;28;20063;-75
2022/01/18 01:12:54;;;;;;;27.70;5.82;;;6.30;99.90;;;;;;5051398;28;20416;-75
2022/01/18 01:15:23;;;;;;;26.77;4.88;;;6.30;99.90;;;;;;5043543;28;20045;-76
2022/01/18 01:18:09;;;;;;;35.47;5.47;;;6.30;99.90;;;;;;5043674;28;20184;-76
2022/01/18 01:37:12;;;;;;;29.88;6.43;;;6.20;99.90;;;;;;5054242;28;20425;-75
2022/01/18 01:42:53;;;;;;;42.08;6.40;;;6.30;99.90;;;;;;5049840;28;20516;-75
2022/01/18 01:45:15;;;;;;;27.77;5.60;;;6.10;99.90;;;;;;5046971;28;20051;-75
2022/01/18 01:47:40;;;;;;;25.95;5.97;;;6.20;99.90;;;;;;5045930;28;20106;-75
2022/01/18 01:50:16;;;;;;;31.20;6.20;;;6.20;99.90;;;;;;5051739;28;20044;-75
2022/01/18 01:52:42;;;;;;;27.38;5.55;;;6.20;99.90;;;;;;5044701;28;20051;-75
2022/01/18 01:55:09;;;;;;;38.95;6.97;;;6.30;99.90;;;;;;5049555;28;20041;-76
2022/01/18 01:57:34;;;;;;;46.33;7.07;;;6.30;99.90;;;;;;5049100;28;20052;-75
2022/01/18 02:00:08;;;;;;;39.03;6.80;;;6.20;99.90;;;;;;5051250;28;20048;-75
2022/01/18 02:02:33;;;;;;;40.50;6.35;;;6.20;99.90;;;;;;5049579;28;20166;-75
2022/01/18 02:04:59;;;;;;;41.15;7.07;;;6.20;99.90;;;;;;5048994;28;20037;-75
2022/01/18 02:07:25;;;;;;;34.20;6.45;;;6.20;99.90;;;;;;5051370;28;20045;-75
2022/01/18 02:09:51;;;;;;;44.47;7.20;;;6.20;99.90;;;;;;5051301;28;20060;-75
2022/01/18 02:12:20;;;;;;;29.60;6.00;;;6.20;99.90;;;;;;5045640;28;20400;-75
2022/01/18 02:14:52;;;;;;;36.80;6.68;;;6.30;99.90;;;;;;5044543;28;20171;-75
2022/01/18 02:22:49;;;;;;;35.72;6.90;;;6.30;99.90;;;;;;5053317;28;20063;-75
2022/01/18 02:25:15;;;;;;;35.92;7.07;;;6.40;99.90;;;;;;5041241;28;20453;-75
2022/01/18 02:27:40;;;;;;;36.33;7.00;;;6.40;99.90;;;;;;5049066;28;20041;-74
2022/01/18 02:30:06;;;;;;;33.53;6.78;;;6.50;99.90;;;;;;5046417;28;20056;-74
2022/01/18 02:32:32;;;;;;;42.83;7.53;;;6.50;99.90;;;;;;5045822;28;20128;-74
2022/01/18 02:34:57;;;;;;;46.67;8.35;;;6.50;99.90;;;;;;5045811;28;20115;-75
2022/01/18 02:37:23;;;;;;;43.65;7.43;;;6.60;99.90;;;;;;5054235;28;20475;-74
2022/01/18 02:39:49;;;;;;;38.17;7.55;;;6.60;99.90;;;;;;5047767;28;20122;-75
2022/01/18 02:42:23;;;;;;;49.65;7.65;;;6.50;99.90;;;;;;5049000;28;20033;-75
2022/01/18 02:44:49;;;;;;;41.80;7.50;;;6.60;99.90;;;;;;5042993;28;20039;-75
2022/01/18 02:47:18;;;;;;;50.60;8.18;;;6.60;99.90;;;;;;5029181;28;20045;-75
2022/01/18 02:49:44;;;;;;;40.20;7.07;;;6.60;99.90;;;;;;5049902;28;20128;-75
2022/01/18 02:52:09;;;;;;;37.95;7.63;;;6.60;99.90;;;;;;5045945;28;20116;-75
2022/01/18 02:54:35;;;;;;;43.92;6.75;;;6.60;99.90;;;;;;5043994;28;20238;-74
2022/01/18 02:57:03;;;;;;;51.85;7.50;;;6.50;99.90;;;;;;5044844;28;20041;-74
2022/01/18 02:59:42;;;;;;;38.85;7.30;;;6.50;99.90;;;;;;5045957;28;20079;-75
2022/01/18 03:05:12;;;;;;;33.53;7.30;;;6.50;99.90;;;;;;5034060;28;20087;-75
2022/01/18 03:07:38;;;;;;;82.10;8.63;;;6.60;99.90;;;;;;5047596;28;20049;-75
2022/01/18 03:10:05;;;;;;;31.05;6.18;;;6.60;99.90;;;;;;5052196;28;20086;-75
2022/01/18 03:12:31;;;;;;;55.55;7.30;;;6.50;99.90;;;;;;5048381;28;20787;-74
2022/01/18 03:14:56;;;;;;;70.05;8.23;;;6.50;99.90;;;;;;5045019;28;20051;-74
2022/01/18 03:17:22;;;;;;;65.10;8.75;;;6.50;99.90;;;;;;5046649;28;20048;-75
2022/01/18 03:19:48;;;;;;;66.97;8.07;;;6.50;99.90;;;;;;5047606;28;20391;-75
2022/01/18 03:22:14;;;;;;;56.53;8.20;;;6.50;99.90;;;;;;5047284;28;20041;-75
2022/01/18 03:24:49;;;;;;;56.38;8.15;;;6.50;99.90;;;;;;5040511;28;20071;-75
2022/01/18 03:30:00;;;;;;;70.93;8.45;;;6.50;99.90;;;;;;5044582;28;19921;-75
2022/01/18 03:32:26;;;;;;;51.75;8.10;;;6.50;99.90;;;;;;5044248;28;20067;-75
2022/01/18 03:34:51;;;;;;;29.40;6.90;;;6.50;99.90;;;;;;5049454;28;20341;-75
2022/01/18 03:37:17;;;;;;;32.83;7.65;;;6.40;99.90;;;;;;5047706;28;20119;-75
2022/01/18 03:39:43;;;;;;;72.93;8.50;;;6.50;99.90;;;;;;5038260;28;20212;-75
2022/01/18 03:44:39;;;;;;;30.38;6.90;;;6.50;99.90;;;;;;5048850;28;20072;-75
2022/01/18 03:47:05;;;;;;;34.30;6.90;;;6.50;99.90;;;;;;5046997;28;20060;-75
2022/01/18 03:49:35;;;;;;;46.08;7.47;;;6.50;99.90;;;;;;5042438;28;20040;-74
2022/01/18 03:52:01;;;;;;;36.88;7.40;;;6.50;99.90;;;;;;5039990;28;20040;-74
2022/01/18 03:54:27;;;;;;;37.28;6.90;;;6.50;99.90;;;;;;5055312;28;20041;-75
2022/01/18 03:56:52;;;;;;;79.78;9.77;;;6.50;99.90;;;;;;5047626;28;20045;-75
2022/01/18 03:59:18;;;;;;;51.22;7.55;;;6.50;99.90;;;;;;5039723;28;20479;-75
2022/01/18 04:01:43;;;;;;;106.90;9.30;;;6.50;99.90;;;;;;5046621;28;20441;-75
2022/01/18 04:04:09;;;;;;;56.65;7.65;;;6.50;99.90;;;;;;5043617;28;20056;-75
2022/01/18 04:06:34;;;;;;;89.38;8.18;;;6.50;99.90;;;;;;5042852;28;20091;-74
2022/01/18 04:09:00;;;;;;;81.18;8.73;;;6.40;99.90;;;;;;5047592;28;20037;-75
2022/01/18 04:11:27;;;;;;;65.75;7.82;;;6.40;99.90;;;;;;5041684;28;20044;-74
2022/01/18 04:13:52;;;;;;;60.80;8.38;;;6.30;99.90;;;;;;5048135;28;20102;-74
2022/01/18 04:16:18;;;;;;;52.00;7.95;;;6.30;99.90;;;;;;5043011;28;20392;-74
2022/01/18 04:18:54;;;;;;;41.40;7.32;;;6.30;99.90;;;;;;5038779;28;20053;-75
2022/01/18 04:29:14;;;;;;;50.22;8.00;;;6.30;99.90;;;;;;5036617;28;20441;-74
2022/01/18 04:31:40;;;;;;;44.03;7.40;;;6.40;99.90;;;;;;5037228;28;20048;-74
2022/01/18 04:34:05;;;;;;;56.25;8.80;;;6.40;99.90;;;;;;5039385;28;20048;-74
2022/01/18 04:36:31;;;;;;;60.63;8.65;;;6.40;99.90;;;;;;5047526;28;20146;-74
2022/01/18 04:38:57;;;;;;;37.28;8.23;;;6.40;99.90;;;;;;5046613;28;20473;-74
2022/01/18 04:41:28;;;;;;;58.65;9.20;;;6.40;99.90;;;;;;5052415;28;20124;-74
2022/01/18 04:49:08;;;;;;;81.45;9.32;;;6.40;99.90;;;;;;5049790;28;20147;-74
2022/01/18 04:51:34;;;;;;;86.60;10.82;;;6.40;99.90;;;;;;5039921;28;20128;-74
2022/01/18 04:54:02;;;;;;;60.22;8.52;;;6.40;99.90;;;;;;5047421;28;20037;-73
2022/01/18 04:59:18;;;;;;;22.98;7.40;;;6.30;99.90;;;;;;5024321;28;20073;-72
2022/01/18 05:01:49;;;;;;;40.42;8.77;;;6.30;99.90;;;;;;5046011;28;20707;-72
2022/01/18 05:04:15;;;;;;;36.55;7.93;;;6.30;99.90;;;;;;5038197;28;20103;-73
2022/01/18 05:06:42;;;;;;;25.90;7.28;;;6.40;99.90;;;;;;5035510;28;20045;-72
2022/01/18 05:09:10;;;;;;;30.13;7.43;;;6.40;99.90;;;;;;5046830;28;20041;-73
2022/01/18 05:11:44;;;;;;;25.35;7.63;;;6.40;99.90;;;;;;5048646;28;20041;-72
2022/01/18 05:19:12;;;;;;;40.08;9.20;;;6.40;99.90;;;;;;5046665;28;20048;-72
2022/01/18 05:24:21;;;;;;;24.40;7.40;;;6.40;99.90;;;;;;5046073;28;20246;-73
2022/01/18 05:26:48;;;;;;;24.33;7.05;;;6.40;99.90;;;;;;5042870;28;20049;-73
2022/01/18 05:29:13;;;;;;;27.48;6.60;;;6.40;99.90;;;;;;5044529;28;20090;-73
2022/01/18 05:31:39;;;;;;;26.83;7.25;;;6.30;99.90;;;;;;5046878;28;20044;-73
2022/01/18 05:34:05;;;;;;;28.98;8.23;;;6.30;99.90;;;;;;5054880;28;20133;-73
2022/01/18 05:36:31;;;;;;;25.42;6.68;;;6.30;99.90;;;;;;5058698;28;20049;-72
2022/01/18 05:38:56;;;;;;;26.55;8.00;;;6.30;99.90;;;;;;5061037;28;20195;-74
2022/01/18 05:41:22;;;;;;;23.17;7.15;;;6.30;99.90;;;;;;5049541;28;20151;-73
2022/01/18 05:43:48;;;;;;;24.00;5.85;;;6.30;99.90;;;;;;5044773;28;20041;-73
2022/01/18 05:46:13;;;;;;;23.65;7.45;;;6.30;99.90;;;;;;5042064;28;20499;-72
2022/01/18 05:48:39;;;;;;;23.65;7.28;;;6.30;99.90;;;;;;5042186;28;20439;-73
2022/01/18 05:51:05;;;;;;;27.90;6.97;;;6.20;99.90;;;;;;5039585;28;20033;-75
2022/01/18 05:53:32;;;;;;;24.63;6.47;;;6.20;99.90;;;;;;5042772;28;20376;-72
2022/01/18 05:55:58;;;;;;;17.52;6.40;;;6.30;99.90;;;;;;5040162;28;20198;-73
2022/01/18 05:58:24;;;;;;;28.30;6.65;;;6.20;99.90;;;;;;5052457;28;20188;-74
2022/01/18 06:00:54;;;;;;;23.60;6.50;;;6.20;99.90;;;;;;5020053;28;20069;-73
2022/01/18 06:03:28;;;;;;;23.92;5.35;;;6.20;99.90;;;;;;5041315;28;20081;-74
2022/01/18 06:08:39;;;;;;;16.98;5.82;;;6.20;99.90;;;;;;5041536;28;20174;-74
2022/01/18 06:11:05;;;;;;;19.67;5.40;;;6.20;99.90;;;;;;5045737;28;20137;-73
2022/01/18 06:13:31;;;;;;;25.98;6.15;;;6.20;99.90;;;;;;5049751;28;20111;-72
2022/01/18 06:15:56;;;;;;;18.92;5.47;;;6.20;99.90;;;;;;5049565;28;21215;-73
2022/01/18 06:18:22;;;;;;;21.63;6.35;;;6.20;99.90;;;;;;5048924;28;20037;-72
2022/01/18 06:20:48;;;;;;;23.38;6.13;;;6.20;99.90;;;;;;5047749;28;20045;-71
2022/01/18 06:23:14;;;;;;;26.15;6.30;;;6.20;99.90;;;;;;5042555;28;20049;-78
2022/01/18 06:25:40;;;;;;;25.90;6.47;;;6.20;99.90;;;;;;5040929;28;20102;-74
2022/01/18 06:28:06;;;;;;;20.25;6.60;;;6.30;99.90;;;;;;5049222;28;20044;-71
2022/01/18 06:30:31;;;;;;;18.85;6.05;;;6.30;99.90;;;;;;5051902;28;20037;-71
2022/01/18 06:32:57;;;;;;;21.77;6.22;;;6.30;99.90;;;;;;5048065;28;20044;-68
2022/01/18 06:35:22;;;;;;;24.15;6.45;;;6.30;99.90;;;;;;5028427;28;20049;-69
2022/01/18 06:37:48;;;;;;;22.13;6.15;;;6.30;99.90;;;;;;5040835;28;20522;-69
2022/01/18 06:40:14;;;;;;;26.73;6.35;;;6.30;99.90;;;;;;5043389;28;20115;-69
2022/01/18 06:42:40;;;;;;;19.60;6.50;;;6.40;99.90;;;;;;5037592;28;20396;-68
2022/01/18 06:45:06;;;;;;;20.00;5.97;;;6.40;99.90;;;;;;5040232;28;20050;-70
2022/01/18 06:47:32;;;;;;;16.75;6.18;;;6.40;99.90;;;;;;5035095;28;20048;-70
2022/01/18 06:49:57;;;;;;;20.48;5.70;;;6.40;99.90;;;;;;5033015;28;20045;-70
2022/01/18 06:52:23;;;;;;;20.77;6.30;;;6.50;99.90;;;;;;5050013;28;20457;-69
2022/01/18 06:54:48;;;;;;;15.20;5.30;;;6.50;99.90;;;;;;5049058;28;20056;-70
2022/01/18 06:57:14;;;;;;;25.27;6.57;;;6.50;99.90;;;;;;5049605;28;20370;-70
2022/01/18 06:59:40;;;;;;;23.45;6.13;;;6.60;99.90;;;;;;5045887;28;20507;-71
2022/01/18 07:02:06;;;;;;;19.50;6.05;;;6.50;99.90;;;;;;5044570;28;20049;-71
2022/01/18 07:04:31;;;;;;;22.70;6.30;;;6.50;99.90;;;;;;5053725;28;20041;-70
2022/01/18 07:06:57;;;;;;;19.40;6.22;;;6.50;99.90;;;;;;5049498;28;20029;-70
2022/01/18 07:09:23;;;;;;;27.10;7.25;;;6.50;99.90;;;;;;5053641;28;20086;-70
2022/01/18 07:11:51;;;;;;;26.50;7.85;;;6.50;99.90;;;;;;5032543;28;20052;-70
2022/01/18 07:14:16;;;;;;;28.00;7.50;;;6.40;99.90;;;;;;5034540;28;20045;-70
2022/01/18 07:16:42;;;;;;;31.67;8.57;;;6.50;99.90;;;;;;5048548;28;20893;-71
2022/01/18 07:19:07;;;;;;;30.42;8.57;;;6.50;99.90;;;;;;5050873;28;20044;-70
2022/01/18 07:21:33;;;;;;;25.67;7.78;;;6.50;99.90;;;;;;5051381;28;20033;-70
2022/01/18 07:24:05;;;;;;;21.80;7.40;;;6.50;99.90;;;;;;5057895;28;20076;-70
2022/01/18 07:26:31;;;;;;;25.70;8.45;;;6.60;99.90;;;;;;5035198;28;20072;-70
2022/01/18 07:28:57;;;;;;;21.42;7.32;;;6.50;99.90;;;;;;5033051;28;20045;-71
2022/01/18 07:31:23;;;;;;;20.98;6.93;;;6.60;99.90;;;;;;5040096;28;20042;-71
2022/01/18 07:33:49;;;;;;;17.25;7.20;;;6.50;99.90;;;;;;5039690;28;20055;-70
2022/01/18 07:36:14;;;;;;;24.15;7.80;;;6.50;99.90;;;;;;5041985;28;20037;-71
2022/01/18 07:38:40;;;;;;;20.65;6.78;;;6.50;99.90;;;;;;5041292;28;20049;-71
2022/01/18 07:41:05;;;;;;;20.80;6.78;;;6.50;99.90;;;;;;5049795;28;20045;-70
2022/01/18 07:43:31;;;;;;;22.70;7.90;;;6.40;99.90;;;;;;5051025;28;20429;-70
2022/01/18 07:45:57;;;;;;;21.88;7.35;;;6.40;99.90;;;;;;5029690;28;20037;-70
2022/01/18 07:48:23;;;;;;;28.25;7.95;;;6.40;99.90;;;;;;5031533;28;20053;-70
2022/01/18 07:50:51;;;;;;;27.85;8.32;;;6.40;99.90;;;;;;5024886;28;20049;-70
2022/01/18 07:53:18;;;;;;;23.60;8.25;;;6.40;99.90;;;;;;5043513;28;20522;-70
2022/01/18 07:55:43;;;;;;;24.05;8.38;;;6.40;99.90;;;;;;5051094;28;20168;-70
2022/01/18 07:58:09;;;;;;;26.35;8.50;;;6.40;99.90;;;;;;5036385;28;20103;-70
2022/01/18 08:00:35;;;;;;;27.83;7.80;;;6.30;99.90;;;;;;5044509;28;20053;-71
2022/01/18 08:03:01;;;;;;;22.48;8.07;;;6.40;99.90;;;;;;5040190;28;20051;-69
2022/01/18 08:05:26;;;;;;;23.50;8.10;;;6.30;99.90;;;;;;5043770;28;20063;-70
2022/01/18 08:07:52;;;;;;;23.30;7.85;;;6.30;99.90;;;;;;5048455;28;20041;-70
2022/01/18 08:10:18;;;;;;;23.27;7.22;;;6.30;99.90;;;;;;5052138;28;20072;-69
2022/01/18 08:12:44;;;;;;;22.02;7.57;;;6.30;99.90;;;;;;5051893;28;20044;-72
2022/01/18 08:15:14;;;;;;;22.83;7.15;;;6.30;99.90;;;;;;5055092;28;20095;-71
2022/01/18 08:17:42;;;;;;;17.30;6.55;;;6.30;99.90;;;;;;5050856;28;20093;-70
2022/01/18 08:20:13;;;;;;;20.65;6.95;;;6.30;99.90;;;;;;5049851;28;20330;-71
2022/01/18 08:22:42;;;;;;;18.23;6.88;;;6.30;99.90;;;;;;5051766;28;20183;-70
2022/01/18 08:25:09;;;;;;;19.48;6.68;;;6.30;99.90;;;;;;5053724;28;20040;-72
2022/01/18 08:27:35;;;;;;;21.80;7.55;;;6.40;99.90;;;;;;5052435;28;20041;-69
2022/01/18 08:30:00;;;;;;;24.27;8.20;;;6.30;99.90;;;;;;5050190;28;20063;-70
2022/01/18 08:32:26;;;;;;;25.25;8.60;;;6.30;99.90;;;;;;5048926;28;20673;-73
2022/01/18 08:34:52;;;;;;;20.02;6.70;;;6.30;99.90;;;;;;5051757;28;20041;-69
2022/01/18 08:37:17;;;;;;;17.67;6.93;;;6.40;99.90;;;;;;5053347;28;20049;-68
2022/01/18 08:39:43;;;;;;;15.05;6.50;;;6.40;99.90;;;;;;5049851;28;20045;-70
2022/01/18 08:42:09;;;;;;;15.90;6.20;;;6.40;99.90;;;;;;5052588;28;20105;-69
2022/01/18 08:44:35;;;;;;;13.10;6.00;;;6.40;99.90;;;;;;5048558;28;20175;-70
2022/01/18 08:47:00;;;;;;;16.83;5.95;;;6.50;99.90;;;;;;5047524;28;20520;-70
2022/01/18 08:49:26;;;;;;;17.80;6.10;;;6.50;99.90;;;;;;5048751;28;20053;-70
2022/01/18 08:51:52;;;;;;;12.60;5.55;;;6.60;99.90;;;;;;5052352;28;20033;-69
2022/01/18 08:54:17;;;;;;;16.00;5.63;;;6.60;99.90;;;;;;5053052;28;20548;-69
2022/01/18 08:56:43;;;;;;;13.35;5.57;;;6.60;99.90;;;;;;5051183;28;20488;-69
2022/01/18 08:59:09;;;;;;;12.98;4.80;;;6.70;99.90;;;;;;5049378;28;20044;-70
2022/01/18 09:01:34;;;;;;;14.07;4.90;;;6.80;99.90;;;;;;5051784;28;20044;-69
2022/01/18 09:04:02;;;;;;;9.60;4.28;;;6.80;99.90;;;;;;5048787;28;20755;-70
2022/01/18 09:06:30;;;;;;;16.95;5.07;;;6.80;99.90;;;;;;5053343;28;20071;-68
2022/01/18 09:08:57;;;;;;;12.63;4.97;;;6.80;99.90;;;;;;5048882;28;20510;-67
2022/01/18 09:11:24;;;;;;;13.02;4.72;;;6.90;99.90;;;;;;5053928;28;20049;-68
2022/01/18 09:13:51;;;;;;;14.80;4.70;;;6.90;99.90;;;;;;5051866;28;20041;-68
2022/01/18 09:16:19;;;;;;;9.98;4.15;;;6.90;99.90;;;;;;5046212;28;20527;-69
2022/01/18 09:18:44;;;;;;;12.50;4.65;;;7.00;99.90;;;;;;5040132;28;20493;-67
2022/01/18 09:21:10;;;;;;;11.75;4.15;;;6.90;99.90;;;;;;5038870;28;20120;-67
2022/01/18 09:23:38;;;;;;;11.48;4.53;;;7.00;99.90;;;;;;5032573;28;20397;-69
2022/01/18 09:26:04;;;;;;;12.38;4.28;;;7.00;99.90;;;;;;5031914;28;20049;-67
2022/01/18 09:28:30;;;;;;;14.15;4.05;;;7.10;99.90;;;;;;5030457;28;20118;-68
2022/01/18 09:30:55;;;;;;;8.77;4.05;;;7.10;99.90;;;;;;5049315;28;20342;-67
2022/01/18 09:33:21;;;;;;;11.98;4.40;;;7.10;99.90;;;;;;5048504;28;20075;-67
2022/01/18 09:35:46;;;;;;;11.13;4.47;;;7.20;99.90;;;;;;5048325;28;20045;-67
2022/01/18 09:38:12;;;;;;;11.75;3.97;;;7.20;99.90;;;;;;5066103;28;20091;-67
2022/01/18 09:40:39;;;;;;;9.80;3.75;;;7.30;99.90;;;;;;5049013;28;20040;-67
2022/01/18 09:43:11;;;;;;;10.90;3.97;;;7.40;99.90;;;;;;5046315;28;20041;-67
2022/01/18 09:45:39;;;;;;;9.57;3.63;;;7.40;99.90;;;;;;5041802;28;20138;-68
2022/01/18 09:48:05;;;;;;;12.13;4.25;;;7.40;99.90;;;;;;5027729;28;20049;-68
2022/01/18 09:50:34;;;;;;;11.07;4.30;;;7.50;99.90;;;;;;5033177;28;20102;-67
2022/01/18 09:53:01;;;;;;;8.57;3.30;;;7.50;99.90;;;;;;5031644;28;20051;-67
2022/01/18 09:55:31;;;;;;;8.35;3.40;;;7.60;99.90;;;;;;5044537;28;20049;-67
2022/01/18 09:57:58;;;;;;;9.25;3.28;;;7.60;99.90;;;;;;5054996;28;20049;-72
2022/01/18 10:00:26;;;;;;;8.18;2.92;;;7.60;99.90;;;;;;5040631;28;20068;-69
2022/01/18 10:02:52;;;;;;;8.25;2.78;;;7.70;99.90;;;;;;5055754;28;20040;-68
2022/01/18 10:05:25;;;;;;;6.22;2.53;;;7.70;99.90;;;;;;5056694;28;20041;-67
2022/01/18 10:08:04;;;;;;;9.40;3.00;;;7.70;99.90;;;;;;5055061;28;20056;-69
2022/01/18 10:10:39;;;;;;;8.07;2.05;;;7.70;99.90;;;;;;5052710;28;20079;-69
2022/01/18 10:13:05;;;;;;;;;;;7.70;99.90;;;;;;5052852;28;20048;-68
2022/01/18 10:15:31;;;;;;;9.10;2.10;;;7.80;99.90;;;;;;5054915;28;19999;-69
2022/01/18 10:18:08;;;;;;;7.40;1.90;;;7.80;99.90;;;;;;5052314;28;20041;-67
2022/01/18 10:20:49;;;;;;;11.15;2.38;;;7.80;99.90;;;;;;5055313;28;20048;-68
2022/01/18 10:23:23;;;;;;;11.15;3.00;;;7.80;99.90;;;;;;5051859;28;20075;-69
2022/01/18 10:25:49;;;;;;;11.00;3.20;;;7.70;99.90;;;;;;5057277;28;20038;-68
2022/01/18 10:28:35;;;;;;;10.13;3.17;;;7.70;99.90;;;;;;5053947;28;20052;-68
2022/01/18 10:31:06;;;;;;;8.23;2.95;;;7.70;99.90;;;;;;5051309;28;20049;-69
2022/01/18 10:33:37;;;;;;;10.00;3.35;;;7.70;99.90;;;;;;5052879;28;20040;-69
2022/01/18 10:36:12;;;;;;;9.15;2.70;;;7.70;99.90;;;;;;5053844;28;20121;-68
2022/01/18 10:38:39;;;;;;;9.50;2.85;;;7.80;99.90;;;;;;5056050;28;20143;-68
2022/01/18 10:41:33;;;;;;;11.68;3.08;;;7.80;99.90;;;;;;5054484;28;20043;-68
2022/01/18 10:44:12;;;;;;;6.70;2.65;;;7.80;99.90;;;;;;5056672;28;20163;-69
2022/01/18 10:46:40;;;;;;;9.73;3.28;;;7.90;99.90;;;;;;5037679;28;20048;-70
2022/01/18 10:49:07;;;;;;;9.20;2.75;;;7.90;99.90;;;;;;5052608;28;20068;-70
2022/01/18 10:51:36;;;;;;;9.82;2.90;;;7.90;99.90;;;;;;5052898;28;20377;-69
2022/01/18 10:54:07;;;;;;;12.80;3.38;;;7.90;99.90;;;;;;5054363;28;20076;-71
2022/01/18 10:56:44;;;;;;;9.95;3.08;;;7.80;99.90;;;;;;5050842;28;20064;-70
2022/01/18 10:59:24;;;;;;;9.35;2.83;;;7.90;99.90;;;;;;5056229;28;20057;-69
2022/01/18 11:02:13;;;;;;;9.10;2.70;;;8.00;99.90;;;;;;5052033;28;20052;-70
2022/01/18 11:04:51;;;;;;;8.00;2.67;;;8.00;99.90;;;;;;5056283;28;20041;-69
2022/01/18 11:07:19;;;;;;;9.18;2.70;;;8.00;99.90;;;;;;5053068;28;20052;-68
2022/01/18 11:09:45;;;;;;;12.77;4.18;;;8.10;99.90;;;;;;5054262;28;20087;-69
2022/01/18 11:12:11;;;;;;;9.75;3.30;;;8.10;99.90;;;;;;5055290;28;20036;-70
2022/01/18 11:14:45;;;;;;;9.77;3.53;;;8.20;99.90;;;;;;5049074;28;20041;-70
2022/01/18 11:17:20;;;;;;;11.25;3.35;;;8.10;99.90;;;;;;5043515;28;20480;-70
2022/01/18 11:19:48;;;;;;;8.35;3.45;;;8.20;99.90;;;;;;5049328;28;20886;-69
2022/01/18 11:22:14;;;;;;;10.90;4.03;;;8.20;99.90;;;;;;5038849;28;20159;-69
2022/01/18 11:24:43;;;;;;;9.98;3.67;;;8.20;99.90;;;;;;5042233;28;20036;-72
2022/01/18 11:27:13;;;;;;;11.45;4.07;;;8.20;99.90;;;;;;5050539;28;20170;-69
2022/01/18 11:29:41;;;;;;;10.85;4.05;;;8.20;99.90;;;;;;5050691;28;20041;-70
2022/01/18 11:32:08;;;;;;;12.30;4.30;;;8.20;99.90;;;;;;5049498;28;20110;-70
2022/01/18 11:34:57;;;;;;;11.55;4.38;;;8.20;99.90;;;;;;5050932;28;20092;-70
2022/01/18 11:37:27;;;;;;;11.15;4.22;;;8.10;99.90;;;;;;5050481;28;20044;-69
2022/01/18 11:40:03;;;;;;;11.27;4.63;;;8.10;99.90;;;;;;5051269;28;20045;-69
2022/01/18 11:42:51;;;;;;;10.98;4.68;;;8.10;99.90;;;;;;5046955;28;20120;-70
2022/01/18 11:45:31;;;;;;;12.27;4.38;;;8.10;99.90;;;;;;5048560;28;20347;-69
2022/01/18 11:48:03;;;;;;;12.07;4.57;;;8.10;99.90;;;;;;5035149;28;20131;-69
2022/01/18 11:50:37;;;;;;;14.32;4.57;;;8.10;99.90;;;;;;5055809;28;20066;-69
2022/01/18 11:53:25;;;;;;;13.90;5.45;;;8.00;99.90;;;;;;5029840;28;20133;-69
2022/01/18 11:55:56;;;;;;;11.93;4.57;;;8.00;99.90;;;;;;5040705;28;20060;-69
2022/01/18 11:58:23;;;;;;;14.27;5.22;;;8.00;99.90;;;;;;5049612;28;20060;-70
2022/01/18 12:00:53;;;;;;;15.00;5.35;;;8.00;99.90;;;;;;5051637;28;20045;-69
2022/01/18 12:03:22;;;;;;;16.40;5.57;;;7.90;99.90;;;;;;5055118;28;20092;-73
2022/01/18 12:05:49;;;;;;;14.73;4.65;;;7.90;99.90;;;;;;5050264;28;20068;-69
2022/01/18 12:08:43;;;;;;;11.55;5.03;;;7.90;99.90;;;;;;5043435;28;20064;-68
2022/01/18 12:11:20;;;;;;;13.10;5.40;;;8.00;99.90;;;;;;5048278;28;20046;-69
2022/01/18 12:13:47;;;;;;;15.25;5.22;;;7.90;99.90;;;;;;5049179;28;20051;-69
2022/01/18 12:16:26;;;;;;;13.52;5.38;;;8.00;99.90;;;;;;5049401;28;20033;-68
2022/01/18 12:19:01;;;;;;;14.35;5.30;;;8.00;99.90;;;;;;5046528;28;20045;-68
2022/01/18 12:21:29;;;;;;;14.93;4.90;;;8.10;99.90;;;;;;5050844;28;20172;-69
2022/01/18 12:24:14;;;;;;;12.85;4.63;;;8.10;99.90;;;;;;5049674;28;20107;-68
2022/01/18 12:26:44;;;;;;;13.38;4.90;;;8.10;99.90;;;;;;5052705;28;20591;-69
2022/01/18 12:29:23;;;;;;;10.52;4.18;;;8.10;99.90;;;;;;5054033;28;20053;-70
2022/01/18 12:34:35;;;;;;;13.05;4.45;;;8.10;99.90;;;;;;5055005;28;20397;-68
2022/01/18 12:37:07;;;;;;;14.52;5.50;;;8.20;99.90;;;;;;5047850;28;20057;-70
2022/01/18 12:45:05;;;;;;;10.70;4.70;;;8.00;99.90;;;;;;5049754;28;20489;-69
2022/01/18 12:47:35;;;;;;;9.63;4.50;;;8.10;99.90;;;;;;5047306;28;20044;-69
2022/01/18 12:50:02;;;;;;;11.43;4.97;;;8.10;99.90;;;;;;5047551;28;20404;-70
2022/01/18 12:52:44;;;;;;;13.95;5.35;;;8.10;99.90;;;;;;5052870;28;20148;-69
2022/01/18 12:55:24;;;;;;;12.55;5.38;;;8.20;99.90;;;;;;5054654;28;20077;-70
2022/01/18 12:58:05;;;;;;;12.57;5.28;;;8.30;99.90;;;;;;5050492;28;20049;-68
2022/01/18 13:00:55;;;;;;;14.25;5.05;;;8.20;99.90;;;;;;5053553;28;20491;-69
2022/01/18 13:03:37;;;;;;;12.82;5.25;;;8.20;99.90;;;;;;5054056;28;20070;-69
2022/01/18 13:06:08;;;;;;;15.50;5.68;;;8.30;99.90;;;;;;5048447;28;20072;-69
2022/01/18 13:08:54;;;;;;;15.05;5.60;;;8.30;99.90;;;;;;5047249;28;20072;-70
2022/01/18 13:11:28;;;;;;;11.57;5.72;;;8.30;99.90;;;;;;5049613;28;20056;-70
2022/01/18 13:14:00;;;;;;;15.97;6.03;;;8.30;99.90;;;;;;5052611;28;20049;-69
2022/01/18 13:25:01;;;;;;;14.35;5.60;;;8.00;99.90;;;;;;5047037;28;20068;-67
2022/01/18 13:27:37;;;;;;;11.82;5.72;;;8.10;99.90;;;;;;5046758;28;20045;-69
2022/01/18 13:30:18;;;;;;;16.55;5.57;;;8.10;99.90;;;;;;5051250;28;20053;-70
2022/01/18 13:32:44;;;;;;;12.40;4.78;;;8.10;99.90;;;;;;5051485;28;20053;-69
2022/01/18 13:35:11;;;;;;;14.90;5.65;;;8.10;99.90;;;;;;5052922;28;20041;-70
2022/01/18 13:37:38;;;;;;;17.88;5.63;;;8.20;99.90;;;;;;5052346;28;20117;-70
2022/01/18 13:40:07;;;;;;;19.15;5.72;;;8.10;99.90;;;;;;5053527;28;20057;-69
2022/01/18 13:42:39;;;;;;;15.25;5.30;;;8.00;99.90;;;;;;5053568;28;20102;-69
2022/01/18 13:45:26;;;;;;;14.85;5.38;;;8.00;99.90;;;;;;5054636;28;20045;-72
2022/01/18 13:48:00;;;;;;;16.30;6.80;;;8.00;99.90;;;;;;5047296;28;20073;-72
2022/01/18 13:50:46;;;;;;;17.10;7.45;;;8.00;99.90;;;;;;5051552;28;20052;-72
2022/01/18 13:53:17;;;;;;;17.27;7.53;;;7.90;99.90;;;;;;5054827;28;20116;-73
2022/01/18 13:55:54;;;;;;;25.75;11.02;;;7.90;99.90;;;;;;5051485;28;20084;-72
2022/01/18 13:58:36;;;;;;;29.73;12.10;;;7.70;99.90;;;;;;5026662;28;20396;-72
2022/01/18 14:01:11;;;;;;;30.10;12.50;;;7.70;99.90;;;;;;5053478;28;20099;-72
2022/01/18 14:03:39;;;;;;;29.52;13.15;;;7.60;99.90;;;;;;5038634;28;20068;-72
2022/01/18 14:06:10;;;;;;;29.90;13.00;;;7.70;99.90;;;;;;5035354;28;20408;-72
2022/01/18 14:08:40;;;;;;;29.98;12.40;;;7.60;99.90;;;;;;5027782;28;20118;-72
2022/01/18 14:11:08;;;;;;;32.58;13.85;;;7.70;99.90;;;;;;5050071;28;20148;-72
2022/01/18 14:13:38;;;;;;;30.88;13.07;;;7.60;99.90;;;;;;5049785;28;20083;-72
2022/01/18 14:16:34;;;;;;;26.27;12.63;;;7.60;99.90;;;;;;5050040;28;20068;-72
2022/01/18 14:19:00;;;;;;;;;;;7.50;99.90;;;;;;5049704;28;20424;-72
2022/01/18 14:21:28;;;;;;;23.13;10.90;;;7.30;99.90;;;;;;5050072;28;20383;-72
2022/01/18 14:24:11;;;;;;;24.15;11.38;;;7.30;99.90;;;;;;5049629;28;20480;-72
2022/01/18 14:26:57;;;;;;;23.13;10.63;;;7.30;99.90;;;;;;5043007;28;20049;-71